Lebanon, Kansas
Current Conditions -  °F | °C
As of 9:55 PM on Thursday 27 Nov 2014 (Local Time) from KCNK Reporting Station
Clear Clear  
Wind Chill: 26°   Ceiling: Unl
Heat Index: 36°   Visibility: 10mi
Dew Point: 18°   Wind: 16mph
Humidity: 48%   Direction: 160°SSE
Pressure: 30.11"   Gusts: NA
Location:  39.81°N, 98.56°W
Report Text: KCNK 280355Z AUTO 16014KT 10SM CLR 02/M08 A3011 RMK AO2 SLP209 T00221078
Loading
Personal Weather Stations






























Interactive Weather Map New forecast layout! Learn more

10-Day Weather Forecast

Advertisements
Track Severe Weather on mobile